createdAt,value
2022-12-28T00:03:22.293Z,4.6
2022-12-28T00:08:44.610Z,4.7
2022-12-28T00:14:56.884Z,4.7
2022-12-28T00:20:20.007Z,4.8
2022-12-28T00:25:44.123Z,4.9
2022-12-28T00:31:08.200Z,4.9
2022-12-28T00:37:07.711Z,4.9
2022-12-28T00:42:42.553Z,5.1
2022-12-28T00:48:04.245Z,5.1
2022-12-28T00:53:27.504Z,5.1
2022-12-28T00:58:49.848Z,5.1
2022-12-28T01:04:13.416Z,5.1
2022-12-28T01:09:20.728Z,5.1
2022-12-28T01:14:43.258Z,5.2
2022-12-28T01:19:54.089Z,5.2
2022-12-28T01:25:16.598Z,5.2
2022-12-28T01:30:39.485Z,5.2
2022-12-28T01:35:46.208Z,5.2
2022-12-28T01:41:08.829Z,5.3
2022-12-28T01:46:39.168Z,5.2
2022-12-28T02:02:01.917Z,5.3
2022-12-28T02:07:08.848Z,5.3
2022-12-28T02:13:20.666Z,5.2
2022-12-28T02:18:17.034Z,5.2
2022-12-28T02:23:38.687Z,5.2
2022-12-28T02:28:43.779Z,5.2
2022-12-28T02:34:07.531Z,5.2
2022-12-28T02:39:29.941Z,5.1
2022-12-28T02:44:37.003Z,5.1
2022-12-28T02:49:59.192Z,5.1
2022-12-28T02:55:06.017Z,5.1
2022-12-28T03:00:29.589Z,5.1
2022-12-28T03:05:37.177Z,5.1
2022-12-28T03:11:05.866Z,5.1
2022-12-28T03:21:22.882Z,5.1
2022-12-28T03:26:29.354Z,5.1
2022-12-28T03:31:52.389Z,5.1
2022-12-28T03:37:13.969Z,5.1
2022-12-28T03:42:36.364Z,5
2022-12-28T03:48:23.616Z,5
2022-12-28T03:53:45.149Z,5
2022-12-28T03:59:07.327Z,4.9
2022-12-28T04:04:31.268Z,4.9
2022-12-28T04:09:53.672Z,4.8
2022-12-28T04:15:21.170Z,4.8
2022-12-28T04:20:44.231Z,4.8
2022-12-28T04:26:05.829Z,4.7
2022-12-28T04:31:12.455Z,4.7
2022-12-28T04:36:03.992Z,4.7
2022-12-28T04:41:24.334Z,4.6
2022-12-28T04:46:49.917Z,4.6
2022-12-28T04:51:57.301Z,4.6
2022-12-28T04:57:35.811Z,4.6
2022-12-28T05:03:02.978Z,4.6
2022-12-28T05:13:39.031Z,4.6
2022-12-28T05:18:52.771Z,4.6
2022-12-28T05:24:05.371Z,4.6
2022-12-28T05:29:28.007Z,4.6
2022-12-28T05:34:51.780Z,4.6
2022-12-28T05:40:15.785Z,4.6
2022-12-28T05:45:28.315Z,4.5
2022-12-28T05:50:53.801Z,4.6
2022-12-28T05:56:22.896Z,4.6
2022-12-28T06:01:29.403Z,4.5
2022-12-28T06:06:57.007Z,4.6
2022-12-28T06:12:22.304Z,4.5
2022-12-28T06:17:29.817Z,4.6
2022-12-28T06:22:42.739Z,4.6
2022-12-28T06:28:05.503Z,4.6
2022-12-28T06:33:30.011Z,4.6
2022-12-28T06:38:56.740Z,4.6
2022-12-28T06:44:46.861Z,4.6
2022-12-28T06:50:09.887Z,4.7
2022-12-28T06:55:32.256Z,4.8
2022-12-28T07:00:46.686Z,4.8
2022-12-28T07:06:11.085Z,4.9
2022-12-28T07:11:38.524Z,5
2022-12-28T07:17:07.591Z,5.1
2022-12-28T07:22:30.150Z,5.4
2022-12-28T07:27:37.552Z,5.9
2022-12-28T07:32:52.531Z,6.8
2022-12-28T07:38:21.069Z,7.7
2022-12-28T07:43:44.132Z,8.8
2022-12-28T07:49:10.966Z,9.8
2022-12-28T07:54:37.627Z,10.4
2022-12-28T08:00:05.502Z,10.7
2022-12-28T08:05:15.095Z,10.7
2022-12-28T08:10:06.536Z,10.8
2022-12-28T08:15:13.912Z,10.8
2022-12-28T08:20:39.018Z,10.8
2022-12-28T08:25:45.724Z,10.8
2022-12-28T08:30:52.913Z,10.8
2022-12-28T08:35:45.213Z,10.8
2022-12-28T08:40:57.213Z,10.8
2022-12-28T08:46:04.812Z,10.8
2022-12-28T08:51:31.391Z,10.8
2022-12-28T08:57:01.025Z,10.7
2022-12-28T09:02:09.065Z,10.7
2022-12-28T09:07:40.803Z,10.7
2022-12-28T09:13:04.998Z,10.6
2022-12-28T09:28:20.975Z,10.8
2022-12-28T09:34:05.731Z,11.1
2022-12-28T09:39:32.262Z,11.7
2022-12-28T09:44:55.130Z,12.2
2022-12-28T09:50:18.345Z,12.5
2022-12-28T09:55:44.461Z,12.8
2022-12-28T10:00:51.092Z,13.2
2022-12-28T10:05:44.328Z,13.4
2022-12-28T10:10:51.675Z,13.8
2022-12-28T10:16:38.711Z,14
2022-12-28T10:22:10.796Z,14.6
2022-12-28T10:28:14.729Z,15.6
2022-12-28T10:33:41.179Z,16.4
2022-12-28T10:39:12.651Z,17.1
2022-12-28T11:04:34.075Z,18.9
2022-12-28T11:09:57.148Z,18.8
2022-12-28T11:15:09.218Z,18.5
2022-12-28T11:20:23.409Z,18.2
2022-12-28T11:25:50.843Z,17.8
2022-12-28T11:31:15.603Z,17.3
2022-12-28T11:36:10.149Z,16.9
2022-12-28T11:47:28.219Z,16.1
2022-12-28T11:52:49.806Z,15.8
2022-12-28T11:58:03.950Z,15.6
2022-12-28T12:03:32.850Z,15.4
2022-12-28T12:08:39.948Z,15.4
2022-12-28T12:14:04.642Z,15.6
2022-12-28T12:19:30.206Z,15.8
2022-12-28T12:24:58.599Z,16
2022-12-28T12:30:23.724Z,16.1
2022-12-28T12:35:31.240Z,16
2022-12-28T12:40:53.574Z,15.8
2022-12-28T12:46:17.221Z,15.4
2022-12-28T12:51:38.580Z,15.1
2022-12-28T12:57:01.036Z,14.7
2022-12-28T13:02:25.260Z,14.4
2022-12-28T13:07:48.584Z,14.1
2022-12-28T13:13:14.030Z,13.8
2022-12-28T13:18:53.967Z,13.4
2022-12-28T13:24:21.795Z,13.1
2022-12-28T13:29:48.353Z,12.9
2022-12-28T13:35:15.384Z,12.6
2022-12-28T13:40:07.121Z,12.4
2022-12-28T13:45:29.581Z,12.2
2022-12-28T13:50:56.609Z,11.9
2022-12-28T13:56:25.420Z,11.7
2022-12-28T14:02:32.658Z,11.4
2022-12-28T14:08:42.050Z,11.1
2022-12-28T14:14:10.429Z,10.9
2022-12-28T14:19:40.624Z,10.6
2022-12-28T14:25:07.171Z,10.4
2022-12-28T14:30:18.441Z,10.2
2022-12-28T15:13:39.107Z,8.4
2022-12-28T15:18:47.180Z,8.2
2022-12-28T15:23:54.515Z,8
2022-12-28T15:29:06.885Z,7.8
2022-12-28T15:35:07.632Z,7.6
2022-12-28T15:40:16.729Z,7.4
2022-12-28T15:45:12.602Z,7.2
2022-12-28T15:50:09.111Z,7.1
2022-12-28T15:55:15.663Z,6.9
2022-12-28T16:00:24.596Z,6.8
2022-12-28T16:05:40.409Z,6.6
2022-12-28T16:11:02.820Z,6.5
2022-12-28T16:16:27.808Z,6.3
2022-12-28T16:21:41.175Z,6.2
2022-12-28T16:26:32.630Z,6.1
2022-12-28T16:31:44.894Z,5.9
2022-12-28T16:36:54.561Z,5.8
2022-12-28T16:42:01.534Z,5.7
2022-12-28T16:47:08.720Z,5.6
2022-12-28T16:52:18.399Z,5.5
2022-12-28T16:57:41.106Z,5.4
2022-12-28T17:03:06.904Z,5.3
2022-12-28T17:08:36.263Z,5.2
2022-12-28T17:14:05.675Z,5.1
2022-12-28T17:19:43.447Z,5.1
2022-12-28T17:25:07.155Z,4.9
2022-12-28T17:30:36.786Z,4.9
2022-12-28T17:35:59.875Z,4.9
2022-12-28T17:41:26.514Z,4.8
2022-12-28T17:46:39.616Z,4.8
2022-12-28T17:52:06.088Z,4.7
2022-12-28T17:57:30.069Z,4.6
2022-12-28T18:02:56.503Z,4.6
2022-12-28T18:08:07.725Z,4.6
2022-12-28T18:13:30.302Z,4.4
2022-12-28T18:18:59.638Z,4.4
2022-12-28T18:24:29.266Z,4.4
2022-12-28T18:29:36.659Z,4.3
2022-12-28T18:35:01.914Z,4.3
2022-12-28T18:40:30.734Z,4.3
2022-12-28T18:45:22.807Z,4.2
2022-12-28T18:50:46.083Z,4.2
2022-12-28T18:55:57.740Z,4.2
2022-12-28T19:01:55.749Z,4.1
2022-12-28T19:07:14.431Z,4.1
2022-12-28T19:12:30.738Z,4.1
2022-12-28T19:17:58.831Z,4.1
2022-12-28T19:23:26.354Z,4.1
2022-12-28T19:28:49.117Z,4.1
2022-12-28T19:34:14.729Z,4.1
2022-12-28T19:39:37.279Z,4.1
2022-12-28T19:45:09.525Z,4.1
2022-12-28T19:50:33.087Z,4.1
2022-12-28T19:56:02.993Z,4.1
2022-12-28T20:01:27.093Z,4.1
2022-12-28T20:06:52.288Z,4.1
2022-12-28T20:11:59.892Z,4.1
2022-12-28T20:17:23.764Z,4.1
2022-12-28T20:23:05.574Z,4.1
2022-12-28T20:28:29.649Z,4.1
2022-12-28T20:33:40.825Z,4.2
2022-12-28T20:38:32.578Z,4.1
2022-12-28T20:43:39.603Z,4.2
2022-12-28T20:48:16.811Z,4.2
2022-12-28T20:53:08.827Z,4.1
2022-12-28T20:58:24.590Z,4.2
2022-12-28T21:03:32.817Z,4.1
2022-12-28T21:08:40.379Z,4.1
2022-12-28T21:13:32.300Z,4.1
2022-12-28T21:18:40.779Z,4
2022-12-28T21:23:49.580Z,3.9
2022-12-28T21:29:12.697Z,3.9
2022-12-28T21:34:36.799Z,3.8
2022-12-28T21:39:50.292Z,3.8
2022-12-28T21:50:05.424Z,3.6
2022-12-28T21:55:12.372Z,3.6
2022-12-28T22:00:19.432Z,3.5
2022-12-28T22:05:32.528Z,3.5
2022-12-28T22:16:02.713Z,3.4
2022-12-28T22:21:56.720Z,3.4
2022-12-28T22:27:19.534Z,3.4
2022-12-28T22:32:27.253Z,3.4
2022-12-28T22:37:52.318Z,3.4
2022-12-28T22:42:59.868Z,3.4
2022-12-28T22:48:23.644Z,3.4
2022-12-28T22:58:44.467Z,3.4
2022-12-28T23:04:11.928Z,3.4
2022-12-28T23:09:40.526Z,3.4
2022-12-28T23:19:55.955Z,3.4
2022-12-28T23:25:19.089Z,3.4
2022-12-28T23:30:10.558Z,3.4
2022-12-28T23:35:02.909Z,3.4
2022-12-28T23:40:26.064Z,3.5
2022-12-28T23:45:32.258Z,3.5
2022-12-28T23:50:42.547Z,3.6
2022-12-28T23:55:52.049Z,3.5
